sensor_id;sensor_type;location;lat;lon;timestamp;pressure;altitude;pressure_sealevel;temperature;humidity
49315;BME280;36672;50.710;12.498;2022-07-04T00:01:59;98523.94;;;18.47;60.42
49315;BME280;36672;50.710;12.498;2022-07-04T00:04:25;98517.09;;;18.45;60.52
49315;BME280;36672;50.710;12.498;2022-07-04T00:06:50;98524.94;;;18.41;59.94
49315;BME280;36672;50.710;12.498;2022-07-04T00:09:15;98524.03;;;18.35;59.85
49315;BME280;36672;50.710;12.498;2022-07-04T00:11:41;98522.88;;;18.31;60.22
49315;BME280;36672;50.710;12.498;2022-07-04T00:14:06;98534.34;;;18.28;59.59
49315;BME280;36672;50.710;12.498;2022-07-04T00:16:31;98534.50;;;18.21;59.68
49315;BME280;36672;50.710;12.498;2022-07-04T00:18:56;98542.94;;;18.20;59.63
49315;BME280;36672;50.710;12.498;2022-07-04T00:21:22;98545.13;;;18.18;59.84
49315;BME280;36672;50.710;12.498;2022-07-04T00:23:47;98552.72;;;18.16;59.96
49315;BME280;36672;50.710;12.498;2022-07-04T00:26:13;98556.47;;;18.09;59.93
49315;BME280;36672;50.710;12.498;2022-07-04T00:28:38;98566.50;;;18.04;60.22
49315;BME280;36672;50.710;12.498;2022-07-04T00:31:04;98574.09;;;18.02;61.22
49315;BME280;36672;50.710;12.498;2022-07-04T00:33:29;98578.41;;;17.98;62.25
49315;BME280;36672;50.710;12.498;2022-07-04T00:35:54;98586.28;;;17.94;61.81
49315;BME280;36672;50.710;12.498;2022-07-04T00:38:19;98590.78;;;17.88;62.29
49315;BME280;36672;50.710;12.498;2022-07-04T00:40:45;98591.53;;;17.84;63.03
49315;BME280;36672;50.710;12.498;2022-07-04T00:43:10;98579.41;;;17.80;62.83
49315;BME280;36672;50.710;12.498;2022-07-04T00:45:35;98581.22;;;17.74;63.09
49315;BME280;36672;50.710;12.498;2022-07-04T00:48:00;98577.91;;;17.72;63.57
49315;BME280;36672;50.710;12.498;2022-07-04T00:50:26;98577.56;;;17.68;63.66
49315;BME280;36672;50.710;12.498;2022-07-04T00:52:52;98577.47;;;17.63;63.60
49315;BME280;36672;50.710;12.498;2022-07-04T00:55:18;98584.50;;;17.59;63.75
49315;BME280;36672;50.710;12.498;2022-07-04T00:57:43;98593.19;;;17.56;64.15
49315;BME280;36672;50.710;12.498;2022-07-04T01:00:08;98588.81;;;17.55;64.38
49315;BME280;36672;50.710;12.498;2022-07-04T01:02:34;98598.31;;;17.52;64.03
49315;BME280;36672;50.710;12.498;2022-07-04T01:04:59;98598.78;;;17.49;64.37
49315;BME280;36672;50.710;12.498;2022-07-04T01:07:24;98605.56;;;17.47;64.36
49315;BME280;36672;50.710;12.498;2022-07-04T01:09:49;98613.91;;;17.40;64.53
49315;BME280;36672;50.710;12.498;2022-07-04T01:12:28;98615.13;;;17.32;64.09
49315;BME280;36672;50.710;12.498;2022-07-04T01:14:53;98616.69;;;17.28;64.13
49315;BME280;36672;50.710;12.498;2022-07-04T01:17:18;98618.81;;;17.26;64.57
49315;BME280;36672;50.710;12.498;2022-07-04T01:19:44;98618.81;;;17.26;64.89
49315;BME280;36672;50.710;12.498;2022-07-04T01:22:09;98628.91;;;17.25;65.23
49315;BME280;36672;50.710;12.498;2022-07-04T01:24:34;98633.53;;;17.25;65.07
49315;BME280;36672;50.710;12.498;2022-07-04T01:26:59;98632.72;;;17.24;64.31
49315;BME280;36672;50.710;12.498;2022-07-04T01:29:25;98640.31;;;17.22;64.48
49315;BME280;36672;50.710;12.498;2022-07-04T01:31:50;98644.94;;;17.22;64.66
49315;BME280;36672;50.710;12.498;2022-07-04T01:34:16;98646.72;;;17.16;64.77
49315;BME280;36672;50.710;12.498;2022-07-04T01:36:41;98643.41;;;17.14;64.44
49315;BME280;36672;50.710;12.498;2022-07-04T01:39:06;98650.19;;;17.11;64.44
49315;BME280;36672;50.710;12.498;2022-07-04T01:41:34;98639.72;;;17.08;64.80
49315;BME280;36672;50.710;12.498;2022-07-04T01:44:00;98645.69;;;17.05;64.88
49315;BME280;36672;50.710;12.498;2022-07-04T01:46:25;98648.31;;;17.00;64.75
49315;BME280;36672;50.710;12.498;2022-07-04T01:48:50;98650.69;;;16.97;65.23
49315;BME280;36672;50.710;12.498;2022-07-04T01:51:16;98646.53;;;16.94;64.99
49315;BME280;36672;50.710;12.498;2022-07-04T01:53:41;98644.72;;;16.88;64.96
49315;BME280;36672;50.710;12.498;2022-07-04T01:56:06;98646.47;;;16.82;65.75
49315;BME280;36672;50.710;12.498;2022-07-04T01:58:31;98648.03;;;16.78;66.11
49315;BME280;36672;50.710;12.498;2022-07-04T02:00:57;98648.28;;;16.76;65.58
49315;BME280;36672;50.710;12.498;2022-07-04T02:03:40;98648.75;;;16.73;65.79
49315;BME280;36672;50.710;12.498;2022-07-04T02:06:06;98651.69;;;16.72;67.08
49315;BME280;36672;50.710;12.498;2022-07-04T02:08:31;98645.75;;;16.63;66.24
49315;BME280;36672;50.710;12.498;2022-07-04T02:11:16;98650.88;;;16.59;67.16
49315;BME280;36672;50.710;12.498;2022-07-04T02:13:41;98643.75;;;16.58;66.46
49315;BME280;36672;50.710;12.498;2022-07-04T02:16:07;98641.50;;;16.55;67.30
49315;BME280;36672;50.710;12.498;2022-07-04T02:18:32;98645.41;;;16.47;67.33
49315;BME280;36672;50.710;12.498;2022-07-04T02:20:58;98655.38;;;16.42;67.05
49315;BME280;36672;50.710;12.498;2022-07-04T02:23:23;98648.69;;;16.38;67.78
49315;BME280;36672;50.710;12.498;2022-07-04T02:25:49;98655.25;;;16.37;67.74
49315;BME280;36672;50.710;12.498;2022-07-04T02:28:14;98656.88;;;16.38;67.70
49315;BME280;36672;50.710;12.498;2022-07-04T02:30:39;98665.06;;;16.38;67.44
49315;BME280;36672;50.710;12.498;2022-07-04T02:33:04;98661.50;;;16.37;67.50
49315;BME280;36672;50.710;12.498;2022-07-04T02:35:29;98659.25;;;16.34;67.69
49315;BME280;36672;50.710;12.498;2022-07-04T02:37:55;98669.56;;;16.32;67.79
49315;BME280;36672;50.710;12.498;2022-07-04T02:40:20;98670.63;;;16.31;67.88
49315;BME280;36672;50.710;12.498;2022-07-04T02:42:45;98677.75;;;16.32;68.58
49315;BME280;36672;50.710;12.498;2022-07-04T02:45:11;98679.84;;;16.30;68.42
49315;BME280;36672;50.710;12.498;2022-07-04T02:47:36;98675.50;;;16.29;68.66
49315;BME280;36672;50.710;12.498;2022-07-04T02:50:01;98678.44;;;16.27;68.91
49315;BME280;36672;50.710;12.498;2022-07-04T02:52:27;98678.06;;;16.24;69.21
49315;BME280;36672;50.710;12.498;2022-07-04T02:54:52;98683.63;;;16.17;69.37
49315;BME280;36672;50.710;12.498;2022-07-04T02:57:17;98673.19;;;16.14;69.17
49315;BME280;36672;50.710;12.498;2022-07-04T02:59:43;98681.38;;;16.14;69.21
49315;BME280;36672;50.710;12.498;2022-07-04T03:02:08;98689.75;;;16.12;69.47
49315;BME280;36672;50.710;12.498;2022-07-04T03:04:33;98695.44;;;16.11;70.48
49315;BME280;36672;50.710;12.498;2022-07-04T03:06:59;98679.34;;;16.09;69.85
49315;BME280;36672;50.710;12.498;2022-07-04T03:09:24;98684.19;;;16.07;69.88
49315;BME280;36672;50.710;12.498;2022-07-04T03:11:52;98680.25;;;16.03;69.42
49315;BME280;36672;50.710;12.498;2022-07-04T03:14:18;98669.47;;;15.96;69.85
49315;BME280;36672;50.710;12.498;2022-07-04T03:16:43;98675.59;;;15.92;70.25
49315;BME280;36672;50.710;12.498;2022-07-04T03:19:08;98680.47;;;15.90;70.16
49315;BME280;36672;50.710;12.498;2022-07-04T03:21:33;98684.25;;;15.89;70.62
49315;BME280;36672;50.710;12.498;2022-07-04T03:23:59;98681.50;;;15.89;69.97
49315;BME280;36672;50.710;12.498;2022-07-04T03:28:50;98689.94;;;15.87;69.90
49315;BME280;36672;50.710;12.498;2022-07-04T03:31:15;98685.91;;;15.90;70.22
49315;BME280;36672;50.710;12.498;2022-07-04T03:33:40;98689.69;;;15.89;70.50
49315;BME280;36672;50.710;12.498;2022-07-04T03:36:05;98686.50;;;15.92;70.50
49315;BME280;36672;50.710;12.498;2022-07-04T03:38:31;98686.88;;;15.95;70.24
49315;BME280;36672;50.710;12.498;2022-07-04T03:40:56;98693.50;;;16.00;70.19
49315;BME280;36672;50.710;12.498;2022-07-04T03:43:21;98699.09;;;16.05;70.67
49315;BME280;36672;50.710;12.498;2022-07-04T03:45:46;98705.97;;;16.07;69.93
49315;BME280;36672;50.710;12.498;2022-07-04T03:48:11;98700.75;;;16.06;69.94
49315;BME280;36672;50.710;12.498;2022-07-04T03:50:37;98701.81;;;16.05;70.48
49315;BME280;36672;50.710;12.498;2022-07-04T03:53:02;98702.44;;;16.07;70.20
49315;BME280;36672;50.710;12.498;2022-07-04T03:55:27;98703.88;;;16.09;70.79
49315;BME280;36672;50.710;12.498;2022-07-04T03:57:52;98706.97;;;16.13;70.21
49315;BME280;36672;50.710;12.498;2022-07-04T04:00:18;98711.34;;;16.14;70.21
49315;BME280;36672;50.710;12.498;2022-07-04T04:02:43;98719.66;;;16.19;70.19
49315;BME280;36672;50.710;12.498;2022-07-04T04:05:08;98730.94;;;16.23;70.07
49315;BME280;36672;50.710;12.498;2022-07-04T04:07:55;98732.88;;;16.34;69.76
49315;BME280;36672;50.710;12.498;2022-07-04T04:10:21;98728.50;;;16.45;69.97
49315;BME280;36672;50.710;12.498;2022-07-04T04:12:46;98729.63;;;16.56;69.92
49315;BME280;36672;50.710;12.498;2022-07-04T04:15:11;98739.72;;;16.67;69.54
49315;BME280;36672;50.710;12.498;2022-07-04T04:17:36;98747.31;;;16.77;68.99
49315;BME280;36672;50.710;12.498;2022-07-04T04:20:02;98742.84;;;16.83;68.72
49315;BME280;36672;50.710;12.498;2022-07-04T04:22:28;98747.13;;;16.90;68.04
49315;BME280;36672;50.710;12.498;2022-07-04T04:24:53;98747.88;;;16.98;68.23
49315;BME280;36672;50.710;12.498;2022-07-04T04:27:19;98746.06;;;17.03;68.28
49315;BME280;36672;50.710;12.498;2022-07-04T04:29:44;98737.75;;;17.10;68.00
49315;BME280;36672;50.710;12.498;2022-07-04T04:32:09;98737.66;;;17.17;67.72
49315;BME280;36672;50.710;12.498;2022-07-04T04:34:34;98737.53;;;17.23;68.30
49315;BME280;36672;50.710;12.498;2022-07-04T04:37:00;98746.91;;;17.27;67.92
49315;BME280;36672;50.710;12.498;2022-07-04T04:39:25;98748.22;;;17.37;67.79
49315;BME280;36672;50.710;12.498;2022-07-04T04:41:50;98755.22;;;17.44;67.86
49315;BME280;36672;50.710;12.498;2022-07-04T04:44:15;98757.13;;;17.56;67.37
49315;BME280;36672;50.710;12.498;2022-07-04T04:46:41;98769.09;;;17.67;66.75
49315;BME280;36672;50.710;12.498;2022-07-04T04:49:06;98755.31;;;17.73;67.31
49315;BME280;36672;50.710;12.498;2022-07-04T04:51:31;98759.69;;;17.86;66.86
49315;BME280;36672;50.710;12.498;2022-07-04T04:53:57;98762.25;;;17.93;66.72
49315;BME280;36672;50.710;12.498;2022-07-04T04:56:22;98763.81;;;17.89;66.62
49315;BME280;36672;50.710;12.498;2022-07-04T04:58:47;98765.72;;;18.00;66.78
49315;BME280;36672;50.710;12.498;2022-07-04T05:01:12;98764.59;;;18.13;66.45
49315;BME280;36672;50.710;12.498;2022-07-04T05:03:38;98766.22;;;18.26;65.67
49315;BME280;36672;50.710;12.498;2022-07-04T05:06:03;98757.63;;;18.34;65.73
49315;BME280;36672;50.710;12.498;2022-07-04T05:08:28;98763.63;;;18.48;65.29
49315;BME280;36672;50.710;12.498;2022-07-04T05:10:54;98761.34;;;18.57;64.73
49315;BME280;36672;50.710;12.498;2022-07-04T05:13:19;98757.94;;;18.67;64.19
49315;BME280;36672;50.710;12.498;2022-07-04T05:15:44;98759.28;;;18.81;64.46
49315;BME280;36672;50.710;12.498;2022-07-04T05:18:11;98771.09;;;18.99;63.88
49315;BME280;36672;50.710;12.498;2022-07-04T05:20:36;98763.06;;;19.09;62.74
49315;BME280;36672;50.710;12.498;2022-07-04T05:23:01;98766.28;;;19.23;62.64
49315;BME280;36672;50.710;12.498;2022-07-04T05:25:26;98772.53;;;19.40;62.17
49315;BME280;36672;50.710;12.498;2022-07-04T05:27:52;98776.34;;;19.56;61.40
49315;BME280;36672;50.710;12.498;2022-07-04T05:30:17;98768.59;;;19.70;60.73
49315;BME280;36672;50.710;12.498;2022-07-04T05:32:42;98775.03;;;19.81;60.45
49315;BME280;36672;50.710;12.498;2022-07-04T05:35:08;98782.09;;;19.94;59.66
49315;BME280;36672;50.710;12.498;2022-07-04T05:37:33;98769.09;;;20.07;59.25
49315;BME280;36672;50.710;12.498;2022-07-04T05:39:58;98779.31;;;20.16;58.86
49315;BME280;36672;50.710;12.498;2022-07-04T05:42:24;98787.88;;;20.20;58.45
49315;BME280;36672;50.710;12.498;2022-07-04T05:44:49;98774.16;;;20.20;58.53
49315;BME280;36672;50.710;12.498;2022-07-04T05:47:14;98770.19;;;20.33;58.83
49315;BME280;36672;50.710;12.498;2022-07-04T05:49:40;98776.69;;;20.49;57.80
49315;BME280;36672;50.710;12.498;2022-07-04T05:52:05;98776.56;;;20.93;56.61
49315;BME280;36672;50.710;12.498;2022-07-04T05:54:30;98776.28;;;21.60;54.59
49315;BME280;36672;50.710;12.498;2022-07-04T05:56:56;98773.63;;;22.54;52.93
49315;BME280;36672;50.710;12.498;2022-07-04T05:59:21;98772.00;;;23.46;50.65
49315;BME280;36672;50.710;12.498;2022-07-04T06:01:46;98782.09;;;24.52;47.34
49315;BME280;36672;50.710;12.498;2022-07-04T06:04:11;98783.91;;;25.47;45.88
49315;BME280;36672;50.710;12.498;2022-07-04T06:06:36;98787.78;;;26.24;43.27
49315;BME280;36672;50.710;12.498;2022-07-04T06:09:02;98786.81;;;27.10;41.82
49315;BME280;36672;50.710;12.498;2022-07-04T06:11:28;98785.81;;;27.80;40.59
49315;BME280;36672;50.710;12.498;2022-07-04T06:13:53;98788.72;;;28.82;40.06
49315;BME280;36672;50.710;12.498;2022-07-04T06:16:18;98785.09;;;29.81;38.13
49315;BME280;36672;50.710;12.498;2022-07-04T06:18:44;98788.31;;;30.81;36.95
49315;BME280;36672;50.710;12.498;2022-07-04T06:21:09;98784.13;;;31.57;35.64
49315;BME280;36672;50.710;12.498;2022-07-04T06:23:35;98780.50;;;32.34;33.88
49315;BME280;36672;50.710;12.498;2022-07-04T06:26:00;98783.59;;;33.05;32.89
49315;BME280;36672;50.710;12.498;2022-07-04T06:28:25;98785.53;;;33.25;32.20
49315;BME280;36672;50.710;12.498;2022-07-04T06:30:50;98781.47;;;33.69;30.20
49315;BME280;36672;50.710;12.498;2022-07-04T06:33:16;98787.22;;;34.46;30.66
49315;BME280;36672;50.710;12.498;2022-07-04T06:35:41;98794.00;;;34.99;29.08
49315;BME280;36672;50.710;12.498;2022-07-04T06:40:48;98787.56;;;35.71;29.03
49315;BME280;36672;50.710;12.498;2022-07-04T06:43:13;98785.09;;;36.33;28.56
49315;BME280;36672;50.710;12.498;2022-07-04T06:45:39;98788.25;;;37.03;28.51
49315;BME280;36672;50.710;12.498;2022-07-04T06:48:05;98789.50;;;37.05;26.53
49315;BME280;36672;50.710;12.498;2022-07-04T06:50:30;98797.00;;;37.60;27.19
49315;BME280;36672;50.710;12.498;2022-07-04T06:52:59;98785.72;;;38.30;24.40
49315;BME280;36672;50.710;12.498;2022-07-04T06:55:24;98778.53;;;38.36;25.53
49315;BME280;36672;50.710;12.498;2022-07-04T06:58:01;98776.31;;;38.26;25.31
49315;BME280;36672;50.710;12.498;2022-07-04T07:00:27;98786.31;;;38.73;24.51
49315;BME280;36672;50.710;12.498;2022-07-04T07:02:55;98784.59;;;39.29;24.51
49315;BME280;36672;50.710;12.498;2022-07-04T07:05:20;98792.31;;;39.74;23.51
49315;BME280;36672;50.710;12.498;2022-07-04T07:07:45;98784.66;;;40.23;22.51
49315;BME280;36672;50.710;12.498;2022-07-04T07:10:11;98783.22;;;39.50;22.80
49315;BME280;36672;50.710;12.498;2022-07-04T07:12:36;98781.41;;;39.72;22.55
49315;BME280;36672;50.710;12.498;2022-07-04T07:15:01;98783.78;;;40.11;22.87
49315;BME280;36672;50.710;12.498;2022-07-04T07:17:27;98783.16;;;40.43;21.51
49315;BME280;36672;50.710;12.498;2022-07-04T07:19:53;98776.94;;;40.86;20.89
49315;BME280;36672;50.710;12.498;2022-07-04T07:22:19;98770.69;;;41.65;20.62
49315;BME280;36672;50.710;12.498;2022-07-04T07:24:44;98774.72;;;41.50;20.30
49315;BME280;36672;50.710;12.498;2022-07-04T07:27:09;98762.16;;;41.51;20.22
49315;BME280;36672;50.710;12.498;2022-07-04T07:29:35;98766.13;;;41.10;20.64
49315;BME280;36672;50.710;12.498;2022-07-04T07:32:00;98761.88;;;40.68;21.15
49315;BME280;36672;50.710;12.498;2022-07-04T07:34:26;98757.13;;;40.93;21.07
49315;BME280;36672;50.710;12.498;2022-07-04T07:36:51;98765.81;;;41.51;20.96
49315;BME280;36672;50.710;12.498;2022-07-04T07:39:17;98753.69;;;41.98;20.08
49315;BME280;36672;50.710;12.498;2022-07-04T07:41:42;98764.06;;;42.80;19.86
49315;BME280;36672;50.710;12.498;2022-07-04T07:44:07;98765.03;;;43.30;19.08
49315;BME280;36672;50.710;12.498;2022-07-04T07:46:33;98768.69;;;43.34;19.27
49315;BME280;36672;50.710;12.498;2022-07-04T07:48:58;98760.31;;;43.05;19.09
49315;BME280;36672;50.710;12.498;2022-07-04T07:51:23;98752.69;;;42.84;20.13
49315;BME280;36672;50.710;12.498;2022-07-04T07:53:49;98764.66;;;43.31;19.25
49315;BME280;36672;50.710;12.498;2022-07-04T07:56:14;98760.91;;;43.98;18.03
49315;BME280;36672;50.710;12.498;2022-07-04T07:58:39;98753.03;;;44.13;18.46
49315;BME280;36672;50.710;12.498;2022-07-04T08:01:04;98761.63;;;44.09;17.99
49315;BME280;36672;50.710;12.498;2022-07-04T08:03:30;98760.31;;;43.05;17.88
49315;BME280;36672;50.710;12.498;2022-07-04T08:06:14;98758.25;;;40.71;19.69
49315;BME280;36672;50.710;12.498;2022-07-04T08:08:40;98758.59;;;39.17;21.57
49315;BME280;36672;50.710;12.498;2022-07-04T08:11:06;98755.91;;;38.93;22.04
49315;BME280;36672;50.710;12.498;2022-07-04T08:13:31;98750.34;;;39.01;21.02
49315;BME280;36672;50.710;12.498;2022-07-04T08:15:56;98744.75;;;38.16;21.84
49315;BME280;36672;50.710;12.498;2022-07-04T08:18:22;98747.41;;;36.93;22.72
49315;BME280;36672;50.710;12.498;2022-07-04T08:20:48;98750.56;;;35.53;24.44
49315;BME280;36672;50.710;12.498;2022-07-04T08:23:13;98750.88;;;34.25;25.96
49315;BME280;36672;50.710;12.498;2022-07-04T08:25:38;98743.06;;;33.23;27.60
49315;BME280;36672;50.710;12.498;2022-07-04T08:28:04;98748.56;;;32.86;28.06
49315;BME280;36672;50.710;12.498;2022-07-04T08:30:29;98750.53;;;32.43;28.34
49315;BME280;36672;50.710;12.498;2022-07-04T08:32:54;98746.13;;;32.03;28.41
49315;BME280;36672;50.710;12.498;2022-07-04T08:35:19;98753.13;;;31.41;29.30
49315;BME280;36672;50.710;12.498;2022-07-04T08:37:45;98755.34;;;30.83;30.07
49315;BME280;36672;50.710;12.498;2022-07-04T08:40:10;98758.06;;;30.39;30.81
49315;BME280;36672;50.710;12.498;2022-07-04T08:42:36;98758.66;;;29.69;31.53
49315;BME280;36672;50.710;12.498;2022-07-04T08:45:02;98758.66;;;29.29;32.10
49315;BME280;36672;50.710;12.498;2022-07-04T08:47:29;98747.91;;;29.13;32.40
49315;BME280;36672;50.710;12.498;2022-07-04T08:52:47;98753.28;;;28.87;33.17
49315;BME280;36672;50.710;12.498;2022-07-04T08:55:16;98745.31;;;28.72;33.34
49315;BME280;36672;50.710;12.498;2022-07-04T08:58:00;98746.06;;;28.50;33.45
49315;BME280;36672;50.710;12.498;2022-07-04T09:00:45;98741.50;;;28.17;33.78
49315;BME280;36672;50.710;12.498;2022-07-04T09:03:11;98746.25;;;27.89;34.45
49315;BME280;36672;50.710;12.498;2022-07-04T09:05:36;98739.38;;;27.72;34.43
49315;BME280;36672;50.710;12.498;2022-07-04T09:08:02;98737.59;;;27.62;34.52
49315;BME280;36672;50.710;12.498;2022-07-04T09:10:28;98733.97;;;27.34;35.09
49315;BME280;36672;50.710;12.498;2022-07-04T09:12:54;98744.50;;;27.18;35.66
49315;BME280;36672;50.710;12.498;2022-07-04T09:15:19;98742.03;;;27.16;36.07
49315;BME280;36672;50.710;12.498;2022-07-04T09:17:45;98738.50;;;27.11;35.67
49315;BME280;36672;50.710;12.498;2022-07-04T09:22:39;98730.94;;;27.16;36.05
49315;BME280;36672;50.710;12.498;2022-07-04T09:25:04;98727.63;;;27.14;35.56
49315;BME280;36672;50.710;12.498;2022-07-04T09:27:34;98726.97;;;27.37;35.36
49315;BME280;36672;50.710;12.498;2022-07-04T09:30:00;98726.28;;;27.45;35.46
49315;BME280;36672;50.710;12.498;2022-07-04T09:32:42;98724.66;;;27.44;35.21
49315;BME280;36672;50.710;12.498;2022-07-04T09:35:08;98724.66;;;27.25;35.77
49315;BME280;36672;50.710;12.498;2022-07-04T09:37:56;98720.75;;;27.12;36.28
49315;BME280;36672;50.710;12.498;2022-07-04T09:40:26;98729.78;;;27.04;35.73
49315;BME280;36672;50.710;12.498;2022-07-04T09:42:52;98721.19;;;26.86;36.14
49315;BME280;36672;50.710;12.498;2022-07-04T09:45:18;98721.38;;;26.76;36.59
49315;BME280;36672;50.710;12.498;2022-07-04T09:47:46;98715.13;;;26.84;35.99
49315;BME280;36672;50.710;12.498;2022-07-04T09:50:13;98713.03;;;27.42;36.01
49315;BME280;36672;50.710;12.498;2022-07-04T09:55:09;98705.31;;;29.36;32.70
49315;BME280;36672;50.710;12.498;2022-07-04T09:57:34;98705.56;;;29.57;32.43
49315;BME280;36672;50.710;12.498;2022-07-04T10:02:43;98701.00;;;28.75;33.31
49315;BME280;36672;50.710;12.498;2022-07-04T10:05:09;98698.00;;;28.49;33.84
49315;BME280;36672;50.710;12.498;2022-07-04T10:07:38;98698.88;;;28.36;34.03
49315;BME280;36672;50.710;12.498;2022-07-04T10:12:53;98685.28;;;28.93;33.60
49315;BME280;36672;50.710;12.498;2022-07-04T10:15:19;98684.03;;;28.77;33.93
49315;BME280;36672;50.710;12.498;2022-07-04T10:17:45;98682.19;;;28.72;34.09
49315;BME280;36672;50.710;12.498;2022-07-04T10:20:11;98681.88;;;28.60;34.92
49315;BME280;36672;50.710;12.498;2022-07-04T10:22:36;98680.06;;;28.33;35.00
49315;BME280;36672;50.710;12.498;2022-07-04T10:25:02;98688.84;;;28.12;34.91
49315;BME280;36672;50.710;12.498;2022-07-04T10:27:28;98681.97;;;27.81;35.27
49315;BME280;36672;50.710;12.498;2022-07-04T10:29:53;98687.22;;;27.69;35.98
49315;BME280;36672;50.710;12.498;2022-07-04T10:32:19;98684.75;;;27.54;35.90
49315;BME280;36672;50.710;12.498;2022-07-04T10:34:45;98688.06;;;27.56;36.11
49315;BME280;36672;50.710;12.498;2022-07-04T10:37:10;98684.88;;;27.48;35.73
49315;BME280;36672;50.710;12.498;2022-07-04T10:39:35;98684.16;;;27.43;35.62
49315;BME280;36672;50.710;12.498;2022-07-04T10:42:01;98683.59;;;27.27;35.89
49315;BME280;36672;50.710;12.498;2022-07-04T10:44:28;98679.88;;;27.04;36.88
49315;BME280;36672;50.710;12.498;2022-07-04T10:47:01;98670.41;;;26.91;36.99
49315;BME280;36672;50.710;12.498;2022-07-04T10:49:27;98676.63;;;26.82;37.00
49315;BME280;36672;50.710;12.498;2022-07-04T10:54:35;98667.28;;;26.78;37.37
49315;BME280;36672;50.710;12.498;2022-07-04T10:59:27;98676.09;;;26.61;37.60
49315;BME280;36672;50.710;12.498;2022-07-04T11:02:38;98676.31;;;26.65;37.92
49315;BME280;36672;50.710;12.498;2022-07-04T11:07:20;98668.38;;;27.24;36.65
49315;BME280;36672;50.710;12.498;2022-07-04T11:09:46;98671.91;;;27.86;35.94
49315;BME280;36672;50.710;12.498;2022-07-04T11:12:12;98667.34;;;28.18;35.21
49315;BME280;36672;50.710;12.498;2022-07-04T11:17:05;98665.25;;;28.23;34.87
49315;BME280;36672;50.710;12.498;2022-07-04T11:19:30;98663.88;;;28.35;35.16
49315;BME280;36672;50.710;12.498;2022-07-04T11:21:56;98658.06;;;28.45;34.59
49315;BME280;36672;50.710;12.498;2022-07-04T11:24:22;98657.19;;;28.58;34.46
49315;BME280;36672;50.710;12.498;2022-07-04T11:26:47;98653.09;;;28.78;34.00
49315;BME280;36672;50.710;12.498;2022-07-04T11:29:13;98664.97;;;29.24;33.42
49315;BME280;36672;50.710;12.498;2022-07-04T11:31:40;98666.31;;;29.76;32.68
49315;BME280;36672;50.710;12.498;2022-07-04T11:34:05;98671.59;;;29.86;32.43
49315;BME280;36672;50.710;12.498;2022-07-04T11:36:31;98660.00;;;30.02;32.12
49315;BME280;36672;50.710;12.498;2022-07-04T11:38:57;98667.06;;;30.17;31.83
49315;BME280;36672;50.710;12.498;2022-07-04T11:44:07;98665.75;;;30.23;32.13
49315;BME280;36672;50.710;12.498;2022-07-04T11:47:00;98665.09;;;29.91;31.86
49315;BME280;36672;50.710;12.498;2022-07-04T11:49:26;98657.97;;;29.76;32.31
49315;BME280;36672;50.710;12.498;2022-07-04T11:51:51;98658.06;;;29.53;32.57
49315;BME280;36672;50.710;12.498;2022-07-04T11:54:18;98660.53;;;29.55;32.24
49315;BME280;36672;50.710;12.498;2022-07-04T11:56:44;98649.09;;;29.65;32.22
49315;BME280;36672;50.710;12.498;2022-07-04T11:59:12;98649.28;;;29.77;31.81
49315;BME280;36672;50.710;12.498;2022-07-04T12:01:38;98629.88;;;30.48;31.34
49315;BME280;36672;50.710;12.498;2022-07-04T12:04:19;98643.50;;;31.23;30.29
49315;BME280;36672;50.710;12.498;2022-07-04T12:06:45;98653.53;;;31.54;29.64
49315;BME280;36672;50.710;12.498;2022-07-04T12:09:11;98649.66;;;31.37;29.39
49315;BME280;36672;50.710;12.498;2022-07-04T12:14:20;98652.47;;;30.46;30.68
49315;BME280;36672;50.710;12.498;2022-07-04T12:16:46;98658.19;;;29.97;31.28
49315;BME280;36672;50.710;12.498;2022-07-04T12:19:12;98656.16;;;29.71;32.04
49315;BME280;36672;50.710;12.498;2022-07-04T12:21:37;98646.09;;;29.53;31.64
49315;BME280;36672;50.710;12.498;2022-07-04T12:24:03;98643.94;;;29.41;31.79
49315;BME280;36672;50.710;12.498;2022-07-04T12:26:32;98640.78;;;29.34;32.58
49315;BME280;36672;50.710;12.498;2022-07-04T12:28:57;98638.38;;;29.09;32.05
49315;BME280;36672;50.710;12.498;2022-07-04T12:31:41;98636.88;;;29.03;32.09
49315;BME280;36672;50.710;12.498;2022-07-04T12:34:13;98634.69;;;29.23;32.46
49315;BME280;36672;50.710;12.498;2022-07-04T12:36:52;98629.31;;;29.26;32.35
49315;BME280;36672;50.710;12.498;2022-07-04T12:39:34;98629.75;;;29.20;32.70
49315;BME280;36672;50.710;12.498;2022-07-04T12:42:10;98621.53;;;29.15;32.54
49315;BME280;36672;50.710;12.498;2022-07-04T12:44:36;98614.47;;;29.00;32.65
49315;BME280;36672;50.710;12.498;2022-07-04T12:47:02;98618.91;;;28.78;32.60
49315;BME280;36672;50.710;12.498;2022-07-04T12:49:27;98616.31;;;28.59;33.06
49315;BME280;36672;50.710;12.498;2022-07-04T12:52:02;98616.00;;;28.60;33.15
49315;BME280;36672;50.710;12.498;2022-07-04T12:54:28;98608.16;;;28.62;32.47
49315;BME280;36672;50.710;12.498;2022-07-04T12:57:01;98593.22;;;28.72;32.52
49315;BME280;36672;50.710;12.498;2022-07-04T12:59:27;98597.03;;;28.62;33.06
49315;BME280;36672;50.710;12.498;2022-07-04T13:01:53;98593.47;;;28.17;33.54
49315;BME280;36672;50.710;12.498;2022-07-04T13:04:18;98589.81;;;28.07;34.03
49315;BME280;36672;50.710;12.498;2022-07-04T13:06:43;98589.97;;;28.11;34.35
49315;BME280;36672;50.710;12.498;2022-07-04T13:09:09;98582.34;;;28.17;33.91
49315;BME280;36672;50.710;12.498;2022-07-04T13:11:34;98577.53;;;28.08;33.90
49315;BME280;36672;50.710;12.498;2022-07-04T13:14:18;98577.94;;;28.02;34.21
49315;BME280;36672;50.710;12.498;2022-07-04T13:16:43;98573.31;;;27.97;34.35
49315;BME280;36672;50.710;12.498;2022-07-04T13:19:09;98572.66;;;27.91;34.08
49315;BME280;36672;50.710;12.498;2022-07-04T13:21:35;98587.25;;;27.83;34.21